الصفحة الرئيسية
METAR-TAF:

METAR-TAF

مطار :

Užice, صربيا

دائرة عرض: 43-53-56N, خط طول: 19-41-52E, ارتفاع: 904 متر

مراقبة الطقس الحالي

تاريخ ووقت الإصدار 24 دقيقة قبل الساعة 20:00UTC
ريح 6 عقدة من الغرب/الشمال الغربي
درجة الحرارة 8°درجة مئوية
الرطوبة 100%
ضغط 1019 hPa
الرؤية 10 كم أو أكثر

METAR: LYUZ 292000Z AUTO 29006KT 9999 SCT007/// OVC081/// 08/08 Q1019

زمن: 22:24 (20:24 UTC)

توقعات

تاريخ ووقت الإصدار 3ساعات و 24 دقيقة قبل الساعة 17:00UTC
التوقعات صالحة من29 الساعة 18 UTC إلى 30 الساعة 18 UTC
ريح 8 عقدة من الغرب/الشمال الغربي
الرؤية 10 كم أو أكثر
غيوم متفرقة على ارتفاع 2000 قدم
مؤقت
من 30 الساعة 00 UTC إلى 30 الساعة 08 UTC
الرؤية: 2000 متر
غيوم مفككة على ارتفاع 300 قدم
غيوم مفككة على ارتفاع 1000 قدم
غشاء
مؤقت
من 30 الساعة 10 UTC إلى 30 الساعة 16 UTC
الرؤية: 3000 متر
غيوم متفرقة على ارتفاع 1700 قدم, مزنة ركامية.
غيوم مفككة على ارتفاع 2000 قدم
عاصفة رعدية, مطر

TAF: LYUZ 291700Z 2918/3018 30008KT 9999 SCT020 TX13/3013Z TN05/3003Z TEMPO 3000/3008 2000 BR BKN003 BKN010 TEMPO 3010/3016 3000 TSRA SCT017CB BKN020

أرصاد الطقس والتوقعات من أكثر من 4000 مطار (تقارير الطقس للمطار METAR والتنبؤ بالطقس بالمطارTAF).

المحطات المتاحة هي النقط الصفراء والحمراء على الخريطة.

حرك المؤشر فوق النقطة لمعرفة اسم المحطة.

ثم انقر لمعرفة أرصاد وتوقعات الطقس.

لتغيير الخارطة: اضغط على الأزرار الخضراء مع رمز الصليب الأسود للتكبير. على الزر الأخضر مع شرطة للتصغير، أو على الأسهم الخضراء للخرائط المجاورة.


METAR-TAF: